sensor_id;sensor_type;location;lat;lon;timestamp;temperature;humidity
314;DHT22;143;51.634;7.112;2022-07-04T00:00:17;17.70;1.00
314;DHT22;143;51.634;7.112;2022-07-04T00:02:44;17.60;1.00
314;DHT22;143;51.634;7.112;2022-07-04T00:05:10;17.60;1.00
314;DHT22;143;51.634;7.112;2022-07-04T00:07:44;17.60;1.00
314;DHT22;143;51.634;7.112;2022-07-04T00:10:13;17.50;1.00
314;DHT22;143;51.634;7.112;2022-07-04T00:12:39;17.50;1.00
314;DHT22;143;51.634;7.112;2022-07-04T00:15:06;17.40;1.00
314;DHT22;143;51.634;7.112;2022-07-04T00:17:32;17.40;1.00
314;DHT22;143;51.634;7.112;2022-07-04T00:19:58;17.40;1.00
314;DHT22;143;51.634;7.112;2022-07-04T00:22:23;17.40;1.00
314;DHT22;143;51.634;7.112;2022-07-04T00:24:49;17.30;1.00
314;DHT22;143;51.634;7.112;2022-07-04T00:27:15;17.30;4.90
314;DHT22;143;51.634;7.112;2022-07-04T00:29:41;17.30;15.10
314;DHT22;143;51.634;7.112;2022-07-04T00:32:07;17.20;24.90
314;DHT22;143;51.634;7.112;2022-07-04T00:34:33;17.20;35.10
314;DHT22;143;51.634;7.112;2022-07-04T00:36:59;17.20;41.90
314;DHT22;143;51.634;7.112;2022-07-04T00:39:24;17.20;55.20
314;DHT22;143;51.634;7.112;2022-07-04T00:41:50;17.10;68.00
314;DHT22;143;51.634;7.112;2022-07-04T00:44:16;17.10;80.10
314;DHT22;143;51.634;7.112;2022-07-04T00:46:43;17.10;90.20
314;DHT22;143;51.634;7.112;2022-07-04T00:49:10;17.10;94.40
314;DHT22;143;51.634;7.112;2022-07-04T00:51:38;17.00;97.50
314;DHT22;143;51.634;7.112;2022-07-04T00:54:05;17.00;99.90
314;DHT22;143;51.634;7.112;2022-07-04T00:56:31;17.00;99.90
314;DHT22;143;51.634;7.112;2022-07-04T00:58:57;17.00;99.90
314;DHT22;143;51.634;7.112;2022-07-04T01:01:25;16.90;99.90
314;DHT22;143;51.634;7.112;2022-07-04T01:03:51;16.90;99.90
314;DHT22;143;51.634;7.112;2022-07-04T01:06:18;16.90;99.90
314;DHT22;143;51.634;7.112;2022-07-04T01:08:44;16.90;99.90
314;DHT22;143;51.634;7.112;2022-07-04T01:11:12;16.90;99.90
314;DHT22;143;51.634;7.112;2022-07-04T01:13:38;16.90;99.90
314;DHT22;143;51.634;7.112;2022-07-04T01:16:06;16.80;99.90
314;DHT22;143;51.634;7.112;2022-07-04T01:18:32;16.80;99.90
314;DHT22;143;51.634;7.112;2022-07-04T01:20:58;16.80;99.90
314;DHT22;143;51.634;7.112;2022-07-04T01:23:23;16.70;99.90
314;DHT22;143;51.634;7.112;2022-07-04T01:25:49;16.70;99.90
314;DHT22;143;51.634;7.112;2022-07-04T01:28:17;16.70;99.90
314;DHT22;143;51.634;7.112;2022-07-04T01:30:43;16.60;99.90
314;DHT22;143;51.634;7.112;2022-07-04T01:33:09;16.60;99.90
314;DHT22;143;51.634;7.112;2022-07-04T01:35:35;16.50;99.90
314;DHT22;143;51.634;7.112;2022-07-04T01:38:00;16.50;99.90
314;DHT22;143;51.634;7.112;2022-07-04T01:40:27;16.40;99.90
314;DHT22;143;51.634;7.112;2022-07-04T01:42:53;16.40;99.90
314;DHT22;143;51.634;7.112;2022-07-04T01:45:18;16.40;99.90
314;DHT22;143;51.634;7.112;2022-07-04T01:47:44;16.30;99.90
314;DHT22;143;51.634;7.112;2022-07-04T01:50:10;16.30;99.90
314;DHT22;143;51.634;7.112;2022-07-04T01:52:40;16.30;99.90
314;DHT22;143;51.634;7.112;2022-07-04T01:55:07;16.30;99.90
314;DHT22;143;51.634;7.112;2022-07-04T01:57:33;16.30;99.90
314;DHT22;143;51.634;7.112;2022-07-04T01:59:58;16.20;99.90
314;DHT22;143;51.634;7.112;2022-07-04T02:02:42;16.20;99.90
314;DHT22;143;51.634;7.112;2022-07-04T02:05:08;16.20;99.90
314;DHT22;143;51.634;7.112;2022-07-04T02:07:34;16.20;99.90
314;DHT22;143;51.634;7.112;2022-07-04T02:10:00;16.10;99.90
314;DHT22;143;51.634;7.112;2022-07-04T02:12:26;16.10;99.90
314;DHT22;143;51.634;7.112;2022-07-04T02:15:10;16.10;99.90
314;DHT22;143;51.634;7.112;2022-07-04T02:17:36;16.10;99.90
314;DHT22;143;51.634;7.112;2022-07-04T02:20:03;16.10;99.90
314;DHT22;143;51.634;7.112;2022-07-04T02:22:30;16.10;99.90
314;DHT22;143;51.634;7.112;2022-07-04T02:24:56;16.10;99.90
314;DHT22;143;51.634;7.112;2022-07-04T02:27:22;16.10;99.90
314;DHT22;143;51.634;7.112;2022-07-04T02:29:48;16.00;99.90
314;DHT22;143;51.634;7.112;2022-07-04T02:32:14;16.00;99.90
314;DHT22;143;51.634;7.112;2022-07-04T02:34:40;16.00;99.90
314;DHT22;143;51.634;7.112;2022-07-04T02:37:05;16.00;99.90
314;DHT22;143;51.634;7.112;2022-07-04T02:39:31;15.90;99.90
314;DHT22;143;51.634;7.112;2022-07-04T02:41:57;15.90;99.90
314;DHT22;143;51.634;7.112;2022-07-04T02:44:23;15.90;99.90
314;DHT22;143;51.634;7.112;2022-07-04T02:46:48;15.90;99.90
314;DHT22;143;51.634;7.112;2022-07-04T02:49:14;15.80;99.90
314;DHT22;143;51.634;7.112;2022-07-04T02:51:40;15.80;99.90
314;DHT22;143;51.634;7.112;2022-07-04T02:54:07;15.80;99.90
314;DHT22;143;51.634;7.112;2022-07-04T02:56:33;15.70;99.90
314;DHT22;143;51.634;7.112;2022-07-04T02:58:59;15.70;99.90
314;DHT22;143;51.634;7.112;2022-07-04T03:01:24;15.70;99.90
314;DHT22;143;51.634;7.112;2022-07-04T03:03:50;15.60;99.90
314;DHT22;143;51.634;7.112;2022-07-04T03:06:17;15.60;99.90
314;DHT22;143;51.634;7.112;2022-07-04T03:08:43;15.50;99.90
314;DHT22;143;51.634;7.112;2022-07-04T03:11:08;15.50;99.90
314;DHT22;143;51.634;7.112;2022-07-04T03:13:36;15.40;99.90
314;DHT22;143;51.634;7.112;2022-07-04T03:16:01;15.40;99.90
314;DHT22;143;51.634;7.112;2022-07-04T03:18:27;15.30;99.90
314;DHT22;143;51.634;7.112;2022-07-04T03:20:53;15.30;99.90
314;DHT22;143;51.634;7.112;2022-07-04T03:23:19;15.30;99.90
314;DHT22;143;51.634;7.112;2022-07-04T03:25:44;15.30;99.90
314;DHT22;143;51.634;7.112;2022-07-04T03:28:10;15.20;99.90
314;DHT22;143;51.634;7.112;2022-07-04T03:30:36;15.20;99.90
314;DHT22;143;51.634;7.112;2022-07-04T03:33:02;15.20;99.90
314;DHT22;143;51.634;7.112;2022-07-04T03:35:28;15.20;99.90
314;DHT22;143;51.634;7.112;2022-07-04T03:37:55;15.10;99.90
314;DHT22;143;51.634;7.112;2022-07-04T03:40:21;15.10;99.90
314;DHT22;143;51.634;7.112;2022-07-04T03:42:47;15.10;99.90
314;DHT22;143;51.634;7.112;2022-07-04T03:45:13;15.00;99.90
314;DHT22;143;51.634;7.112;2022-07-04T03:47:39;15.00;99.90
314;DHT22;143;51.634;7.112;2022-07-04T03:50:05;15.00;99.90
314;DHT22;143;51.634;7.112;2022-07-04T03:52:31;15.00;99.90
314;DHT22;143;51.634;7.112;2022-07-04T03:54:57;15.00;99.90
314;DHT22;143;51.634;7.112;2022-07-04T03:57:23;15.00;99.90
314;DHT22;143;51.634;7.112;2022-07-04T03:59:48;15.00;99.90
314;DHT22;143;51.634;7.112;2022-07-04T04:02:14;15.00;99.90
314;DHT22;143;51.634;7.112;2022-07-04T04:04:40;15.00;99.90
314;DHT22;143;51.634;7.112;2022-07-04T04:07:24;15.00;99.90
314;DHT22;143;51.634;7.112;2022-07-04T04:09:50;15.00;99.90
314;DHT22;143;51.634;7.112;2022-07-04T04:12:16;15.00;99.90
314;DHT22;143;51.634;7.112;2022-07-04T04:14:42;15.00;99.90
314;DHT22;143;51.634;7.112;2022-07-04T04:17:07;14.90;99.90
314;DHT22;143;51.634;7.112;2022-07-04T04:19:33;15.00;99.90
314;DHT22;143;51.634;7.112;2022-07-04T04:21:59;15.00;99.90
314;DHT22;143;51.634;7.112;2022-07-04T04:24:25;15.00;99.90
314;DHT22;143;51.634;7.112;2022-07-04T04:26:50;15.00;99.90
314;DHT22;143;51.634;7.112;2022-07-04T04:29:16;15.10;99.90
314;DHT22;143;51.634;7.112;2022-07-04T04:31:42;15.00;99.90
314;DHT22;143;51.634;7.112;2022-07-04T04:34:07;15.10;99.90
314;DHT22;143;51.634;7.112;2022-07-04T04:36:33;15.10;99.90
314;DHT22;143;51.634;7.112;2022-07-04T04:38:59;15.10;99.90
314;DHT22;143;51.634;7.112;2022-07-04T04:41:25;15.20;1.00
314;DHT22;143;51.634;7.112;2022-07-04T04:43:50;15.10;1.00
314;DHT22;143;51.634;7.112;2022-07-04T04:46:16;15.20;1.00
314;DHT22;143;51.634;7.112;2022-07-04T04:48:42;15.20;1.00
314;DHT22;143;51.634;7.112;2022-07-04T04:51:08;15.20;1.00
314;DHT22;143;51.634;7.112;2022-07-04T04:53:33;15.30;1.00
314;DHT22;143;51.634;7.112;2022-07-04T04:55:59;15.30;1.00
314;DHT22;143;51.634;7.112;2022-07-04T04:58:25;15.40;1.00
314;DHT22;143;51.634;7.112;2022-07-04T05:00:50;15.40;1.00
314;DHT22;143;51.634;7.112;2022-07-04T05:03:16;15.50;1.00
314;DHT22;143;51.634;7.112;2022-07-04T05:05:43;15.50;1.00
314;DHT22;143;51.634;7.112;2022-07-04T05:08:09;15.60;1.00
314;DHT22;143;51.634;7.112;2022-07-04T05:10:34;15.70;1.00
314;DHT22;143;51.634;7.112;2022-07-04T05:13:00;15.70;1.00
314;DHT22;143;51.634;7.112;2022-07-04T05:15:26;15.80;1.00
314;DHT22;143;51.634;7.112;2022-07-04T05:17:52;15.90;1.00
314;DHT22;143;51.634;7.112;2022-07-04T05:20:17;16.00;1.00
314;DHT22;143;51.634;7.112;2022-07-04T05:22:43;16.00;1.00
314;DHT22;143;51.634;7.112;2022-07-04T05:25:09;16.00;1.00
314;DHT22;143;51.634;7.112;2022-07-04T05:27:35;16.10;1.00
314;DHT22;143;51.634;7.112;2022-07-04T05:30:01;16.10;1.00
314;DHT22;143;51.634;7.112;2022-07-04T05:32:27;16.10;1.00
314;DHT22;143;51.634;7.112;2022-07-04T05:34:53;16.20;1.00
314;DHT22;143;51.634;7.112;2022-07-04T05:37:19;16.20;1.00
314;DHT22;143;51.634;7.112;2022-07-04T05:39:44;16.20;1.00
314;DHT22;143;51.634;7.112;2022-07-04T05:42:10;16.20;1.00
314;DHT22;143;51.634;7.112;2022-07-04T05:44:36;16.30;1.00
314;DHT22;143;51.634;7.112;2022-07-04T05:47:02;16.30;1.00
314;DHT22;143;51.634;7.112;2022-07-04T05:49:27;16.40;1.00
314;DHT22;143;51.634;7.112;2022-07-04T05:51:53;16.40;1.00
314;DHT22;143;51.634;7.112;2022-07-04T05:54:19;16.40;1.00
314;DHT22;143;51.634;7.112;2022-07-04T05:56:45;16.50;1.00
314;DHT22;143;51.634;7.112;2022-07-04T05:59:10;16.60;1.00
314;DHT22;143;51.634;7.112;2022-07-04T06:01:36;16.70;1.00
314;DHT22;143;51.634;7.112;2022-07-04T06:04:04;16.70;1.00
314;DHT22;143;51.634;7.112;2022-07-04T06:06:30;16.80;1.00
314;DHT22;143;51.634;7.112;2022-07-04T06:08:56;16.90;1.00
314;DHT22;143;51.634;7.112;2022-07-04T06:11:22;16.90;1.00
314;DHT22;143;51.634;7.112;2022-07-04T06:13:48;17.00;1.00
314;DHT22;143;51.634;7.112;2022-07-04T06:16:15;17.00;1.00
314;DHT22;143;51.634;7.112;2022-07-04T06:18:42;17.10;1.00
314;DHT22;143;51.634;7.112;2022-07-04T06:21:08;17.20;99.90
314;DHT22;143;51.634;7.112;2022-07-04T06:23:34;17.20;99.90
314;DHT22;143;51.634;7.112;2022-07-04T06:26:00;17.20;99.90
314;DHT22;143;51.634;7.112;2022-07-04T06:28:25;17.30;99.90
314;DHT22;143;51.634;7.112;2022-07-04T06:30:51;17.40;99.90
314;DHT22;143;51.634;7.112;2022-07-04T06:33:17;17.40;99.90
314;DHT22;143;51.634;7.112;2022-07-04T06:35:44;17.60;99.90
314;DHT22;143;51.634;7.112;2022-07-04T06:38:15;17.70;99.90
314;DHT22;143;51.634;7.112;2022-07-04T06:40:41;17.70;99.90
314;DHT22;143;51.634;7.112;2022-07-04T06:43:07;17.90;99.90
314;DHT22;143;51.634;7.112;2022-07-04T06:45:32;17.90;99.90
314;DHT22;143;51.634;7.112;2022-07-04T06:48:05;18.00;99.90
314;DHT22;143;51.634;7.112;2022-07-04T06:50:34;18.10;99.90
314;DHT22;143;51.634;7.112;2022-07-04T06:53:05;18.20;99.90
314;DHT22;143;51.634;7.112;2022-07-04T06:55:31;18.30;99.90
314;DHT22;143;51.634;7.112;2022-07-04T06:57:57;18.40;99.90
314;DHT22;143;51.634;7.112;2022-07-04T07:00:23;18.50;99.90
314;DHT22;143;51.634;7.112;2022-07-04T07:02:49;18.60;99.90
314;DHT22;143;51.634;7.112;2022-07-04T07:05:15;18.60;99.90
314;DHT22;143;51.634;7.112;2022-07-04T07:07:41;18.70;99.90
314;DHT22;143;51.634;7.112;2022-07-04T07:10:07;18.70;99.90
314;DHT22;143;51.634;7.112;2022-07-04T07:12:34;18.80;99.90
314;DHT22;143;51.634;7.112;2022-07-04T07:15:00;18.70;99.90
314;DHT22;143;51.634;7.112;2022-07-04T07:17:26;18.80;99.90
314;DHT22;143;51.634;7.112;2022-07-04T07:19:52;18.70;99.90
314;DHT22;143;51.634;7.112;2022-07-04T07:22:18;18.70;99.90
314;DHT22;143;51.634;7.112;2022-07-04T07:24:44;18.80;99.90
314;DHT22;143;51.634;7.112;2022-07-04T07:27:10;18.90;99.90
314;DHT22;143;51.634;7.112;2022-07-04T07:29:37;19.00;99.90
314;DHT22;143;51.634;7.112;2022-07-04T07:32:03;19.10;99.90
314;DHT22;143;51.634;7.112;2022-07-04T07:34:29;19.10;99.90
314;DHT22;143;51.634;7.112;2022-07-04T07:36:55;19.30;99.90
314;DHT22;143;51.634;7.112;2022-07-04T07:39:21;19.30;99.90
314;DHT22;143;51.634;7.112;2022-07-04T07:41:46;19.40;99.90
314;DHT22;143;51.634;7.112;2022-07-04T07:44:12;19.60;99.90
314;DHT22;143;51.634;7.112;2022-07-04T07:46:39;19.70;99.90
314;DHT22;143;51.634;7.112;2022-07-04T07:49:04;19.90;85.90
314;DHT22;143;51.634;7.112;2022-07-04T07:51:30;20.00;35.50
314;DHT22;143;51.634;7.112;2022-07-04T07:53:56;20.10;1.00
314;DHT22;143;51.634;7.112;2022-07-04T07:56:22;20.30;1.00
314;DHT22;143;51.634;7.112;2022-07-04T07:58:49;20.40;1.00
314;DHT22;143;51.634;7.112;2022-07-04T08:01:15;20.50;1.00
314;DHT22;143;51.634;7.112;2022-07-04T08:03:40;20.50;1.00
314;DHT22;143;51.634;7.112;2022-07-04T08:06:25;20.50;1.00
314;DHT22;143;51.634;7.112;2022-07-04T08:08:50;20.40;1.00
314;DHT22;143;51.634;7.112;2022-07-04T08:11:16;20.40;1.00
314;DHT22;143;51.634;7.112;2022-07-04T08:13:42;20.30;1.00
314;DHT22;143;51.634;7.112;2022-07-04T08:16:08;20.30;1.00
314;DHT22;143;51.634;7.112;2022-07-04T08:18:34;20.30;1.00
314;DHT22;143;51.634;7.112;2022-07-04T08:21:00;20.40;1.00
314;DHT22;143;51.634;7.112;2022-07-04T08:23:26;20.50;1.00
314;DHT22;143;51.634;7.112;2022-07-04T08:25:52;20.50;1.00
314;DHT22;143;51.634;7.112;2022-07-04T08:28:18;20.60;1.00
314;DHT22;143;51.634;7.112;2022-07-04T08:30:44;20.70;1.00
314;DHT22;143;51.634;7.112;2022-07-04T08:33:10;20.80;1.00
314;DHT22;143;51.634;7.112;2022-07-04T08:35:35;21.00;1.00
314;DHT22;143;51.634;7.112;2022-07-04T08:38:01;21.10;1.00
314;DHT22;143;51.634;7.112;2022-07-04T08:40:28;21.30;1.00
314;DHT22;143;51.634;7.112;2022-07-04T08:42:54;21.50;1.00
314;DHT22;143;51.634;7.112;2022-07-04T08:45:28;21.60;1.00
314;DHT22;143;51.634;7.112;2022-07-04T08:48:03;21.70;1.00
314;DHT22;143;51.634;7.112;2022-07-04T08:50:32;21.80;1.00
314;DHT22;143;51.634;7.112;2022-07-04T08:53:13;21.80;1.00
314;DHT22;143;51.634;7.112;2022-07-04T08:55:42;21.90;1.00
314;DHT22;143;51.634;7.112;2022-07-04T08:58:27;21.90;1.00
314;DHT22;143;51.634;7.112;2022-07-04T09:01:03;22.00;1.00
314;DHT22;143;51.634;7.112;2022-07-04T09:03:30;22.00;1.00
314;DHT22;143;51.634;7.112;2022-07-04T09:05:57;22.00;1.00
314;DHT22;143;51.634;7.112;2022-07-04T09:08:23;22.10;1.00
314;DHT22;143;51.634;7.112;2022-07-04T09:10:50;22.20;1.00
314;DHT22;143;51.634;7.112;2022-07-04T09:13:16;22.30;1.00
314;DHT22;143;51.634;7.112;2022-07-04T09:15:49;22.40;1.00
314;DHT22;143;51.634;7.112;2022-07-04T09:18:23;22.60;1.00
314;DHT22;143;51.634;7.112;2022-07-04T09:20:50;22.60;1.00
314;DHT22;143;51.634;7.112;2022-07-04T09:23:30;22.60;1.00
314;DHT22;143;51.634;7.112;2022-07-04T09:26:09;22.60;1.00
314;DHT22;143;51.634;7.112;2022-07-04T09:28:36;22.70;1.00
314;DHT22;143;51.634;7.112;2022-07-04T09:31:12;22.80;1.00
314;DHT22;143;51.634;7.112;2022-07-04T09:33:54;22.90;1.00
314;DHT22;143;51.634;7.112;2022-07-04T09:36:27;23.10;1.00
314;DHT22;143;51.634;7.112;2022-07-04T09:39:19;23.10;1.00
314;DHT22;143;51.634;7.112;2022-07-04T09:42:00;23.30;1.00
314;DHT22;143;51.634;7.112;2022-07-04T09:44:28;23.40;1.00
314;DHT22;143;51.634;7.112;2022-07-04T09:46:55;23.50;1.00
314;DHT22;143;51.634;7.112;2022-07-04T09:49:22;23.70;1.00
314;DHT22;143;51.634;7.112;2022-07-04T09:51:50;23.70;1.00
314;DHT22;143;51.634;7.112;2022-07-04T09:56:47;23.90;1.00
314;DHT22;143;51.634;7.112;2022-07-04T09:59:13;24.00;1.00
314;DHT22;143;51.634;7.112;2022-07-04T10:01:39;24.10;1.00
314;DHT22;143;51.634;7.112;2022-07-04T10:04:06;24.20;1.00
314;DHT22;143;51.634;7.112;2022-07-04T10:06:33;24.20;1.00
314;DHT22;143;51.634;7.112;2022-07-04T10:09:16;24.30;1.00
314;DHT22;143;51.634;7.112;2022-07-04T10:11:46;24.40;1.00
314;DHT22;143;51.634;7.112;2022-07-04T10:14:13;24.50;1.00
314;DHT22;143;51.634;7.112;2022-07-04T10:16:40;24.60;1.00
314;DHT22;143;51.634;7.112;2022-07-04T10:19:09;24.80;1.00
314;DHT22;143;51.634;7.112;2022-07-04T10:21:35;24.80;1.00
314;DHT22;143;51.634;7.112;2022-07-04T10:24:02;24.70;1.00
314;DHT22;143;51.634;7.112;2022-07-04T10:26:30;24.80;1.00
314;DHT22;143;51.634;7.112;2022-07-04T10:28:57;24.80;1.00
314;DHT22;143;51.634;7.112;2022-07-04T10:31:26;24.80;1.00
314;DHT22;143;51.634;7.112;2022-07-04T10:33:52;24.80;1.00
314;DHT22;143;51.634;7.112;2022-07-04T10:36:21;24.90;1.00
314;DHT22;143;51.634;7.112;2022-07-04T10:38:53;25.00;1.00
314;DHT22;143;51.634;7.112;2022-07-04T10:41:21;25.10;1.00
314;DHT22;143;51.634;7.112;2022-07-04T10:49:03;25.50;1.00
314;DHT22;143;51.634;7.112;2022-07-04T10:54:33;25.40;1.00
314;DHT22;143;51.634;7.112;2022-07-04T10:57:20;25.40;1.00
314;DHT22;143;51.634;7.112;2022-07-04T11:18:10;26.40;1.00
314;DHT22;143;51.634;7.112;2022-07-04T11:20:36;26.40;1.00
314;DHT22;143;51.634;7.112;2022-07-04T11:23:11;26.20;1.00
314;DHT22;143;51.634;7.112;2022-07-04T11:25:42;26.30;1.00
314;DHT22;143;51.634;7.112;2022-07-04T11:28:24;26.40;1.00
314;DHT22;143;51.634;7.112;2022-07-04T11:30:55;26.50;1.00
314;DHT22;143;51.634;7.112;2022-07-04T11:33:28;26.70;1.00
314;DHT22;143;51.634;7.112;2022-07-04T11:36:07;26.90;1.00
314;DHT22;143;51.634;7.112;2022-07-04T11:41:12;27.00;1.00
314;DHT22;143;51.634;7.112;2022-07-04T11:43:57;27.00;1.00
314;DHT22;143;51.634;7.112;2022-07-04T11:46:41;27.10;1.00
314;DHT22;143;51.634;7.112;2022-07-04T11:49:10;27.30;1.00
314;DHT22;143;51.634;7.112;2022-07-04T11:51:42;27.20;1.00
314;DHT22;143;51.634;7.112;2022-07-04T11:54:08;27.10;1.00
314;DHT22;143;51.634;7.112;2022-07-04T11:56:34;27.00;1.00
314;DHT22;143;51.634;7.112;2022-07-04T11:59:10;27.00;1.00
314;DHT22;143;51.634;7.112;2022-07-04T12:01:37;27.00;1.00
314;DHT22;143;51.634;7.112;2022-07-04T12:04:17;26.80;1.00
314;DHT22;143;51.634;7.112;2022-07-04T12:06:45;26.70;1.00
314;DHT22;143;51.634;7.112;2022-07-04T12:09:12;26.70;1.00
314;DHT22;143;51.634;7.112;2022-07-04T12:11:57;26.60;1.00
314;DHT22;143;51.634;7.112;2022-07-04T12:14:24;26.60;1.00
314;DHT22;143;51.634;7.112;2022-07-04T12:16:56;26.70;1.00
314;DHT22;143;51.634;7.112;2022-07-04T12:19:33;26.50;1.00
314;DHT22;143;51.634;7.112;2022-07-04T12:21:59;26.50;1.00
314;DHT22;143;51.634;7.112;2022-07-04T12:24:27;26.60;1.00
314;DHT22;143;51.634;7.112;2022-07-04T12:26:52;26.70;1.00
314;DHT22;143;51.634;7.112;2022-07-04T12:29:25;26.60;1.00
314;DHT22;143;51.634;7.112;2022-07-04T12:31:53;26.60;1.00
314;DHT22;143;51.634;7.112;2022-07-04T12:34:20;26.60;1.00
314;DHT22;143;51.634;7.112;2022-07-04T12:36:56;26.70;1.00
314;DHT22;143;51.634;7.112;2022-07-04T12:39:35;26.90;1.00
314;DHT22;143;51.634;7.112;2022-07-04T12:42:14;27.00;1.00
314;DHT22;143;51.634;7.112;2022-07-04T12:44:42;26.90;1.00
314;DHT22;143;51.634;7.112;2022-07-04T12:47:10;26.90;1.00
314;DHT22;143;51.634;7.112;2022-07-04T12:49:36;26.70;1.00
314;DHT22;143;51.634;7.112;2022-07-04T12:52:13;26.80;1.00
314;DHT22;143;51.634;7.112;2022-07-04T12:54:40;27.00;1.00
314;DHT22;143;51.634;7.112;2022-07-04T12:57:14;27.20;1.00
314;DHT22;143;51.634;7.112;2022-07-04T12:59:41;27.30;1.00
314;DHT22;143;51.634;7.112;2022-07-04T13:02:08;27.30;1.00
314;DHT22;143;51.634;7.112;2022-07-04T13:04:34;27.20;1.00
314;DHT22;143;51.634;7.112;2022-07-04T13:07:15;27.20;1.00
314;DHT22;143;51.634;7.112;2022-07-04T13:09:43;27.20;1.00
314;DHT22;143;51.634;7.112;2022-07-04T13:12:10;27.20;1.00
314;DHT22;143;51.634;7.112;2022-07-04T13:14:57;27.40;1.00
314;DHT22;143;51.634;7.112;2022-07-04T13:17:24;27.60;1.00
314;DHT22;143;51.634;7.112;2022-07-04T13:19:50;27.90;1.00
314;DHT22;143;51.634;7.112;2022-07-04T13:22:18;28.00;1.00
314;DHT22;143;51.634;7.112;2022-07-04T13:24:45;28.20;1.00
314;DHT22;143;51.634;7.112;2022-07-04T13:27:10;28.30;1.00
314;DHT22;143;51.634;7.112;2022-07-04T13:29:36;28.10;1.00
314;DHT22;143;51.634;7.112;2022-07-04T13:32:03;28.00;1.00
314;DHT22;143;51.634;7.112;2022-07-04T13:34:29;28.00;1.00
314;DHT22;143;51.634;7.112;2022-07-04T13:36:55;28.00;1.00
314;DHT22;143;51.634;7.112;2022-07-04T13:39:22;28.10;1.00
314;DHT22;143;51.634;7.112;2022-07-04T13:41:48;28.10;1.00
314;DHT22;143;51.634;7.112;2022-07-04T13:44:13;28.10;1.00
314;DHT22;143;51.634;7.112;2022-07-04T13:46:41;28.10;1.00
314;DHT22;143;51.634;7.112;2022-07-04T13:49:07;28.00;1.00
314;DHT22;143;51.634;7.112;2022-07-04T13:51:33;27.90;1.00
314;DHT22;143;51.634;7.112;2022-07-04T13:53:59;27.80;1.00
314;DHT22;143;51.634;7.112;2022-07-04T13:56:26;27.70;1.00
314;DHT22;143;51.634;7.112;2022-07-04T13:58:51;27.70;1.00
314;DHT22;143;51.634;7.112;2022-07-04T14:01:18;27.60;1.00
314;DHT22;143;51.634;7.112;2022-07-04T14:03:46;27.70;1.00
314;DHT22;143;51.634;7.112;2022-07-04T14:06:12;27.70;1.00
314;DHT22;143;51.634;7.112;2022-07-04T14:08:38;27.70;1.00
314;DHT22;143;51.634;7.112;2022-07-04T14:11:04;27.60;1.00
314;DHT22;143;51.634;7.112;2022-07-04T14:13:30;27.70;1.00
314;DHT22;143;51.634;7.112;2022-07-04T14:15:56;27.70;1.00
314;DHT22;143;51.634;7.112;2022-07-04T14:18:22;27.70;1.00
314;DHT22;143;51.634;7.112;2022-07-04T14:20:47;27.90;1.00
314;DHT22;143;51.634;7.112;2022-07-04T14:23:15;28.00;1.00
314;DHT22;143;51.634;7.112;2022-07-04T14:26:01;28.10;1.00
314;DHT22;143;51.634;7.112;2022-07-04T14:28:28;28.00;1.00
314;DHT22;143;51.634;7.112;2022-07-04T14:30:54;28.00;1.00
314;DHT22;143;51.634;7.112;2022-07-04T14:33:19;28.00;1.00
314;DHT22;143;51.634;7.112;2022-07-04T14:35:45;28.10;1.00
314;DHT22;143;51.634;7.112;2022-07-04T14:38:11;28.20;1.00
314;DHT22;143;51.634;7.112;2022-07-04T14:40:36;28.30;1.00
314;DHT22;143;51.634;7.112;2022-07-04T14:43:04;28.40;1.00
314;DHT22;143;51.634;7.112;2022-07-04T14:45:30;28.40;1.00
314;DHT22;143;51.634;7.112;2022-07-04T14:47:56;28.40;1.00
314;DHT22;143;51.634;7.112;2022-07-04T14:50:22;28.40;1.00
314;DHT22;143;51.634;7.112;2022-07-04T14:52:49;28.40;1.00
314;DHT22;143;51.634;7.112;2022-07-04T14:55:15;28.40;1.00
314;DHT22;143;51.634;7.112;2022-07-04T14:57:41;28.50;1.00
314;DHT22;143;51.634;7.112;2022-07-04T15:00:07;28.60;1.00
314;DHT22;143;51.634;7.112;2022-07-04T15:02:33;28.60;1.00
314;DHT22;143;51.634;7.112;2022-07-04T15:04:59;28.70;1.00
314;DHT22;143;51.634;7.112;2022-07-04T15:07:25;28.80;1.00
314;DHT22;143;51.634;7.112;2022-07-04T15:09:51;28.80;1.00
314;DHT22;143;51.634;7.112;2022-07-04T15:12:17;28.80;1.00
314;DHT22;143;51.634;7.112;2022-07-04T15:14:42;28.80;1.00
314;DHT22;143;51.634;7.112;2022-07-04T15:17:08;28.80;1.00
314;DHT22;143;51.634;7.112;2022-07-04T15:19:34;28.70;1.00
314;DHT22;143;51.634;7.112;2022-07-04T15:22:19;28.60;1.00
314;DHT22;143;51.634;7.112;2022-07-04T15:25:04;28.60;1.00
314;DHT22;143;51.634;7.112;2022-07-04T15:27:29;28.50;1.00
314;DHT22;143;51.634;7.112;2022-07-04T15:29:55;28.50;1.00
314;DHT22;143;51.634;7.112;2022-07-04T15:32:21;28.40;1.00
314;DHT22;143;51.634;7.112;2022-07-04T15:34:47;28.40;1.00
314;DHT22;143;51.634;7.112;2022-07-04T15:37:12;28.30;1.00
314;DHT22;143;51.634;7.112;2022-07-04T15:39:38;28.30;1.00
314;DHT22;143;51.634;7.112;2022-07-04T15:42:04;28.30;1.00
314;DHT22;143;51.634;7.112;2022-07-04T15:44:29;28.20;1.00
314;DHT22;143;51.634;7.112;2022-07-04T15:46:55;28.20;1.00
314;DHT22;143;51.634;7.112;2022-07-04T15:49:33;28.20;1.00
314;DHT22;143;51.634;7.112;2022-07-04T15:51:59;28.20;1.00
314;DHT22;143;51.634;7.112;2022-07-04T15:54:25;28.20;1.00
314;DHT22;143;51.634;7.112;2022-07-04T15:56:50;28.20;1.00
314;DHT22;143;51.634;7.112;2022-07-04T15:59:16;28.30;1.00
314;DHT22;143;51.634;7.112;2022-07-04T16:01:42;28.30;1.00
314;DHT22;143;51.634;7.112;2022-07-04T16:04:08;28.30;1.00
314;DHT22;143;51.634;7.112;2022-07-04T16:06:34;28.30;1.00
314;DHT22;143;51.634;7.112;2022-07-04T16:09:00;28.30;1.00
314;DHT22;143;51.634;7.112;2022-07-04T16:11:25;28.30;1.00
314;DHT22;143;51.634;7.112;2022-07-04T16:13:51;28.10;1.00
314;DHT22;143;51.634;7.112;2022-07-04T16:16:17;28.00;1.00
314;DHT22;143;51.634;7.112;2022-07-04T16:18:43;27.90;1.00
314;DHT22;143;51.634;7.112;2022-07-04T16:21:09;27.80;1.00
314;DHT22;143;51.634;7.112;2022-07-04T16:23:35;27.70;1.00
314;DHT22;143;51.634;7.112;2022-07-04T16:26:00;27.70;1.00
314;DHT22;143;51.634;7.112;2022-07-04T16:28:26;27.70;1.00
314;DHT22;143;51.634;7.112;2022-07-04T16:30:52;27.70;1.00
314;DHT22;143;51.634;7.112;2022-07-04T16:33:17;27.70;1.00
314;DHT22;143;51.634;7.112;2022-07-04T16:35:43;27.70;1.00
314;DHT22;143;51.634;7.112;2022-07-04T16:38:11;27.60;1.00
314;DHT22;143;51.634;7.112;2022-07-04T16:40:37;27.60;1.00
314;DHT22;143;51.634;7.112;2022-07-04T16:43:03;27.50;1.00
314;DHT22;143;51.634;7.112;2022-07-04T16:45:28;27.50;1.00
314;DHT22;143;51.634;7.112;2022-07-04T16:47:54;27.40;1.00
314;DHT22;143;51.634;7.112;2022-07-04T16:50:20;27.40;1.00
314;DHT22;143;51.634;7.112;2022-07-04T16:52:45;27.30;1.00
314;DHT22;143;51.634;7.112;2022-07-04T16:55:11;27.30;1.00
314;DHT22;143;51.634;7.112;2022-07-04T16:57:37;27.20;1.00
314;DHT22;143;51.634;7.112;2022-07-04T17:00:04;27.10;1.00
314;DHT22;143;51.634;7.112;2022-07-04T17:02:30;27.10;1.00
314;DHT22;143;51.634;7.112;2022-07-04T17:04:56;27.10;1.00
314;DHT22;143;51.634;7.112;2022-07-04T17:07:21;27.10;1.00
314;DHT22;143;51.634;7.112;2022-07-04T17:09:50;27.10;1.00
314;DHT22;143;51.634;7.112;2022-07-04T17:12:17;27.10;1.00
314;DHT22;143;51.634;7.112;2022-07-04T17:14:43;27.10;1.00
314;DHT22;143;51.634;7.112;2022-07-04T17:17:09;27.10;1.00
314;DHT22;143;51.634;7.112;2022-07-04T17:19:34;27.10;1.00